createdAt,value
2023-11-30T00:01:53.337Z,0.89
2023-11-30T00:04:23.000Z,0.91
2023-11-30T00:07:13.871Z,0.93
2023-11-30T00:09:42.868Z,0.93
2023-11-30T00:12:22.080Z,0.93
2023-11-30T00:14:53.580Z,0.94
2023-11-30T00:17:32.760Z,0.93
2023-11-30T00:20:21.881Z,0.92
2023-11-30T00:23:02.289Z,0.91
2023-11-30T00:25:41.632Z,0.90
2023-11-30T00:28:14.034Z,0.90
2023-11-30T00:30:46.030Z,0.89
2023-11-30T00:33:17.896Z,0.88
2023-11-30T00:35:57.116Z,0.87
2023-11-30T00:38:38.802Z,0.86
2023-11-30T00:41:17.429Z,0.86
2023-11-30T00:44:06.648Z,0.85
2023-11-30T00:46:38.111Z,0.84
2023-11-30T00:49:07.163Z,0.84
2023-11-30T00:51:39.496Z,0.85
2023-11-30T00:54:19.783Z,0.86
2023-11-30T00:56:49.040Z,0.87
2023-11-30T00:59:21.356Z,0.89
2023-11-30T01:01:53.207Z,0.89
2023-11-30T01:04:25.390Z,0.90
2023-11-30T01:06:57.414Z,0.90
2023-11-30T01:09:39.078Z,0.91
2023-11-30T01:12:28.580Z,0.92
2023-11-30T01:15:00.709Z,0.92
2023-11-30T01:17:29.818Z,0.93
2023-11-30T01:20:01.872Z,0.95
2023-11-30T01:22:35.768Z,0.96
2023-11-30T01:25:05.054Z,0.96
2023-11-30T01:27:54.407Z,0.95
2023-11-30T01:30:26.648Z,0.95
2023-11-30T01:32:55.856Z,0.96
2023-11-30T01:35:30.353Z,0.96
2023-11-30T01:38:19.606Z,0.97
2023-11-30T01:40:51.177Z,0.99
2023-11-30T01:43:40.329Z,0.98
2023-11-30T01:46:20.408Z,0.99
2023-11-30T01:49:00.255Z,0.99
2023-11-30T01:51:39.746Z,1.01
2023-11-30T01:54:09.605Z,1.02
2023-11-30T01:56:41.987Z,1.03
2023-11-30T01:59:16.790Z,1.04
2023-11-30T02:01:50.007Z,1.04
2023-11-30T02:04:23.539Z,1.01
2023-11-30T02:06:55.210Z,0.99
2023-11-30T02:09:27.026Z,0.98
2023-11-30T02:11:59.473Z,0.95
2023-11-30T02:14:33.217Z,0.92
2023-11-30T02:17:14.880Z,0.92
2023-11-30T02:19:47.035Z,0.91
2023-11-30T02:22:19.246Z,0.90
2023-11-30T02:24:49.335Z,0.89
2023-11-30T02:27:21.484Z,0.88
2023-11-30T02:30:00.713Z,0.87
2023-11-30T02:32:43.790Z,0.86
2023-11-30T02:35:32.912Z,0.86
2023-11-30T02:38:01.957Z,0.87
2023-11-30T02:40:33.986Z,0.87
2023-11-30T02:43:14.430Z,0.87
2023-11-30T02:45:53.605Z,0.87
2023-11-30T02:48:25.571Z,0.89
2023-11-30T02:51:04.818Z,0.91
2023-11-30T02:53:53.990Z,0.92
2023-11-30T02:56:25.833Z,0.93
2023-11-30T02:58:58.072Z,0.94
2023-11-30T03:01:48.047Z,0.94
2023-11-30T03:04:37.380Z,0.93
2023-11-30T03:07:08.796Z,0.94
2023-11-30T03:09:37.936Z,0.94
2023-11-30T03:12:17.774Z,0.93
2023-11-30T03:14:50.263Z,0.93
2023-11-30T03:17:23.429Z,0.92
2023-11-30T03:19:52.588Z,0.92
2023-11-30T03:22:34.553Z,0.93
2023-11-30T03:25:07.508Z,0.93
2023-11-30T03:27:56.752Z,0.95
2023-11-30T03:30:25.923Z,0.95
2023-11-30T03:33:15.186Z,0.96
2023-11-30T03:35:44.253Z,0.97
2023-11-30T03:38:16.324Z,0.97
2023-11-30T03:40:45.466Z,0.97
2023-11-30T03:43:17.633Z,0.97
2023-11-30T03:45:49.842Z,0.97
2023-11-30T03:48:39.731Z,0.97
2023-11-30T03:51:11.905Z,0.98
2023-11-30T03:53:43.796Z,0.98
2023-11-30T03:56:33.975Z,0.96
2023-11-30T03:59:13.269Z,0.96
2023-11-30T04:02:02.490Z,0.96
2023-11-30T04:04:31.772Z,0.96
2023-11-30T04:07:02.321Z,0.97
2023-11-30T04:09:51.491Z,0.96
2023-11-30T04:12:40.669Z,0.95
2023-11-30T04:15:12.956Z,0.94
2023-11-30T04:18:02.260Z,0.93
2023-11-30T04:20:42.508Z,0.92
2023-11-30T04:23:14.528Z,0.91
2023-11-30T04:25:43.665Z,0.90
2023-11-30T04:28:33.032Z,0.89
2023-11-30T04:31:12.465Z,0.87
2023-11-30T04:33:47.372Z,0.86
2023-11-30T04:36:27.615Z,0.84
2023-11-30T04:39:17.096Z,0.84
2023-11-30T04:41:48.589Z,0.82
2023-11-30T04:44:37.784Z,0.81
2023-11-30T04:47:09.845Z,0.80
2023-11-30T04:49:42.868Z,0.78
2023-11-30T04:52:14.717Z,0.77
2023-11-30T04:54:57.765Z,0.75
2023-11-30T04:57:26.882Z,0.76
2023-11-30T05:00:17.232Z,0.74
2023-11-30T05:03:06.629Z,0.72
2023-11-30T05:05:55.927Z,0.71
2023-11-30T05:08:37.579Z,0.70
2023-11-30T05:11:18.019Z,0.69
2023-11-30T05:13:47.020Z,0.69
2023-11-30T05:16:16.116Z,0.69
2023-11-30T05:18:45.295Z,0.70
2023-11-30T05:21:16.993Z,0.70
2023-11-30T05:24:06.520Z,0.70
2023-11-30T05:26:35.527Z,0.71
2023-11-30T05:29:24.692Z,0.71
2023-11-30T05:32:13.877Z,0.70
2023-11-30T05:34:52.862Z,0.70
2023-11-30T05:37:24.919Z,0.69
2023-11-30T05:39:56.902Z,0.67
2023-11-30T05:42:37.293Z,0.65
2023-11-30T05:45:22.752Z,0.62
2023-11-30T05:47:52.028Z,0.60
2023-11-30T05:50:21.587Z,0.57
2023-11-30T05:52:50.532Z,0.55
2023-11-30T05:55:39.743Z,0.51
2023-11-30T05:58:29.179Z,0.47
2023-11-30T06:01:10.096Z,0.42
2023-11-30T06:03:59.434Z,0.37
2023-11-30T06:06:31.885Z,0.32
2023-11-30T06:09:10.971Z,0.26
2023-11-30T06:12:00.339Z,0.19
2023-11-30T06:14:29.353Z,0.14
2023-11-30T06:17:08.525Z,0.08
2023-11-30T06:19:47.787Z,0.01
2023-11-30T06:22:37.225Z,-0.05
2023-11-30T06:25:26.520Z,-0.10
2023-11-30T06:28:09.436Z,-0.14
2023-11-30T06:30:58.792Z,-0.18
2023-11-30T06:33:55.555Z,-0.24
2023-11-30T06:36:37.543Z,-0.29
2023-11-30T06:39:17.814Z,-0.34
2023-11-30T06:41:52.368Z,-0.38
2023-11-30T06:44:22.796Z,-0.40
2023-11-30T06:47:01.034Z,-0.44
2023-11-30T06:49:50.362Z,-0.46
2023-11-30T06:52:29.425Z,-0.49
2023-11-30T06:55:18.581Z,-0.51
2023-11-30T06:58:07.803Z,-0.54
2023-11-30T07:00:37.347Z,-0.55
2023-11-30T07:03:29.697Z,-0.57
2023-11-30T07:06:10.654Z,-0.56
2023-11-30T07:08:43.041Z,-0.57
2023-11-30T07:11:32.324Z,-0.56
2023-11-30T07:14:14.150Z,-0.57
2023-11-30T07:16:54.474Z,-0.57
2023-11-30T07:19:43.961Z,-0.59
2023-11-30T07:22:16.791Z,-0.59
2023-11-30T07:24:48.600Z,-0.59
2023-11-30T07:27:28.888Z,-0.59
2023-11-30T07:30:18.308Z,-0.57
2023-11-30T07:33:07.536Z,-0.54
2023-11-30T07:35:57.028Z,-0.51
2023-11-30T07:38:37.660Z,-0.48
2023-11-30T07:41:18.704Z,-0.43
2023-11-30T07:44:07.985Z,-0.37
2023-11-30T07:46:50.076Z,-0.32
2023-11-30T07:49:27.544Z,-0.25
2023-11-30T07:51:59.071Z,-0.20
2023-11-30T07:54:49.038Z,-0.15
2023-11-30T07:57:20.777Z,-0.12
2023-11-30T07:59:55.382Z,-0.09
2023-11-30T08:02:44.992Z,-0.07
2023-11-30T08:05:26.083Z,-0.04
2023-11-30T08:08:05.955Z,-0.02
2023-11-30T08:10:56.958Z,-0.02
2023-11-30T08:13:46.914Z,-0.01
2023-11-30T08:16:35.584Z,-0.01
2023-11-30T08:19:25.270Z,-0.03
2023-11-30T08:22:15.204Z,-0.06
2023-11-30T08:25:06.532Z,-0.07
2023-11-30T08:27:39.105Z,-0.07
2023-11-30T08:30:10.852Z,-0.06
2023-11-30T08:32:50.073Z,-0.04
2023-11-30T08:35:39.670Z,0.00
2023-11-30T08:38:13.252Z,0.04
2023-11-30T08:40:45.238Z,0.08
2023-11-30T08:43:34.810Z,0.11
2023-11-30T08:46:14.097Z,0.14
2023-11-30T08:49:03.441Z,0.19
2023-11-30T08:51:45.744Z,0.23
2023-11-30T08:54:15.670Z,0.29
2023-11-30T08:56:54.042Z,0.36
2023-11-30T08:59:32.483Z,0.42
2023-11-30T09:02:09.019Z,0.48
2023-11-30T09:04:48.410Z,0.55
2023-11-30T09:07:31.835Z,0.63
2023-11-30T09:10:03.928Z,0.70
2023-11-30T09:12:46.739Z,0.76
2023-11-30T09:15:36.176Z,0.86
2023-11-30T09:18:16.512Z,0.93
2023-11-30T09:21:07.321Z,1.00
2023-11-30T09:23:57.345Z,1.04
2023-11-30T09:26:33.279Z,1.10
2023-11-30T09:29:15.317Z,1.16
2023-11-30T09:31:57.746Z,1.22
2023-11-30T09:34:39.181Z,1.26
2023-11-30T09:37:08.495Z,1.27
2023-11-30T09:39:57.755Z,1.25
2023-11-30T09:42:47.296Z,1.22
2023-11-30T09:45:16.865Z,1.17
2023-11-30T09:47:46.179Z,1.13
2023-11-30T09:50:26.560Z,1.08
2023-11-30T09:53:05.701Z,1.04
2023-11-30T09:55:47.683Z,1.06
2023-11-30T09:58:19.018Z,1.09
2023-11-30T10:01:09.802Z,1.19
2023-11-30T10:03:50.505Z,1.27
2023-11-30T10:06:33.836Z,1.40
2023-11-30T10:09:23.287Z,1.54
2023-11-30T10:12:03.833Z,1.63
2023-11-30T10:15:02.254Z,1.74
2023-11-30T10:17:34.428Z,1.85
2023-11-30T10:20:12.442Z,1.92
2023-11-30T10:22:49.773Z,1.98
2023-11-30T10:25:26.627Z,2.01
2023-11-30T10:28:05.217Z,2.03
2023-11-30T10:30:38.786Z,2.09
2023-11-30T10:33:22.864Z,2.19
2023-11-30T10:36:06.705Z,2.33
2023-11-30T10:38:40.238Z,2.46
2023-11-30T10:41:32.430Z,2.57
2023-11-30T10:44:21.373Z,2.68
2023-11-30T10:47:02.138Z,2.76
2023-11-30T10:49:43.896Z,2.82
2023-11-30T10:52:16.836Z,2.88
2023-11-30T10:55:10.502Z,2.93
2023-11-30T10:57:42.581Z,2.97
2023-11-30T11:00:25.371Z,3.02
2023-11-30T11:03:12.121Z,3.07
2023-11-30T11:05:59.983Z,3.13
2023-11-30T11:08:34.142Z,3.17
2023-11-30T11:11:09.999Z,3.22
2023-11-30T11:13:56.192Z,3.31
2023-11-30T11:16:42.469Z,3.39
2023-11-30T11:19:33.863Z,3.46
2023-11-30T11:22:03.513Z,3.53
2023-11-30T11:24:41.700Z,3.63
2023-11-30T11:27:13.196Z,3.74
2023-11-30T11:29:45.215Z,3.86
2023-11-30T11:32:21.891Z,3.98
2023-11-30T11:34:52.463Z,4.08
2023-11-30T11:37:23.956Z,4.19
2023-11-30T11:39:53.434Z,4.25
2023-11-30T11:42:25.566Z,4.31
2023-11-30T11:44:54.857Z,4.34
2023-11-30T11:47:24.100Z,4.32
2023-11-30T11:49:53.450Z,4.35
2023-11-30T11:52:26.399Z,4.38
2023-11-30T11:55:01.733Z,4.45
2023-11-30T11:57:41.470Z,4.53
2023-11-30T12:00:18.307Z,4.56
2023-11-30T12:03:09.201Z,4.58
2023-11-30T12:06:00.276Z,4.64
2023-11-30T12:08:38.543Z,4.69
2023-11-30T12:11:20.913Z,4.72
2023-11-30T12:14:00.562Z,4.78
2023-11-30T12:16:40.000Z,4.82
2023-11-30T12:19:23.043Z,4.87
2023-11-30T12:21:54.596Z,4.89
2023-11-30T12:24:24.413Z,4.87
2023-11-30T12:27:03.539Z,4.89
2023-11-30T12:29:32.687Z,4.93
2023-11-30T12:32:04.444Z,4.95
2023-11-30T12:34:38.158Z,4.96
2023-11-30T12:37:17.214Z,4.95
2023-11-30T12:39:57.413Z,4.96
2023-11-30T12:42:28.793Z,5.00
2023-11-30T12:45:12.550Z,5.04
2023-11-30T12:47:50.958Z,5.14
2023-11-30T12:50:21.809Z,5.16
2023-11-30T12:52:56.574Z,5.12
2023-11-30T12:55:28.218Z,5.14
2023-11-30T12:57:58.019Z,5.08
2023-11-30T13:00:38.395Z,5.03
2023-11-30T13:03:10.785Z,4.97
2023-11-30T13:05:42.130Z,4.92
2023-11-30T13:08:14.242Z,4.89
2023-11-30T13:10:46.002Z,4.86
2023-11-30T13:13:26.054Z,4.82
2023-11-30T13:16:02.147Z,4.80
2023-11-30T13:18:32.084Z,4.81
2023-11-30T13:21:01.453Z,4.80
2023-11-30T13:23:33.090Z,4.80
2023-11-30T13:26:02.023Z,4.78
2023-11-30T13:28:37.742Z,4.73
2023-11-30T13:31:12.571Z,4.67
2023-11-30T13:33:52.113Z,4.64
2023-11-30T13:36:21.394Z,4.61
2023-11-30T13:38:53.653Z,4.53
2023-11-30T13:41:24.799Z,4.50
2023-11-30T13:43:54.170Z,4.48
2023-11-30T13:46:34.647Z,4.47
2023-11-30T13:49:24.454Z,4.42
2023-11-30T13:51:54.177Z,4.37
2023-11-30T13:54:32.371Z,4.31
2023-11-30T13:57:08.286Z,4.27
2023-11-30T13:59:37.458Z,4.23
2023-11-30T14:02:09.076Z,4.17
2023-11-30T14:04:51.695Z,4.12
2023-11-30T14:07:21.526Z,4.12
2023-11-30T14:09:53.364Z,4.10
2023-11-30T14:12:42.970Z,4.13
2023-11-30T14:15:17.288Z,4.15
2023-11-30T14:17:57.776Z,4.16
2023-11-30T14:20:40.880Z,4.17
2023-11-30T14:23:10.406Z,4.17
2023-11-30T14:25:42.680Z,4.18
2023-11-30T14:28:16.387Z,4.21
2023-11-30T14:30:46.287Z,4.24
2023-11-30T14:33:20.691Z,4.25
2023-11-30T14:35:55.044Z,4.24
2023-11-30T14:38:36.520Z,4.22
2023-11-30T14:41:08.129Z,4.17
2023-11-30T14:43:46.210Z,4.10
2023-11-30T14:46:18.211Z,4.04
2023-11-30T14:49:08.452Z,3.98
2023-11-30T14:51:52.434Z,3.90
2023-11-30T14:54:21.742Z,3.82
2023-11-30T14:57:12.494Z,3.74
2023-11-30T14:59:45.139Z,3.65
2023-11-30T15:02:14.455Z,3.60
2023-11-30T15:04:43.702Z,3.55
2023-11-30T15:07:24.425Z,3.51
2023-11-30T15:09:53.722Z,3.46
2023-11-30T15:12:43.096Z,3.41
2023-11-30T15:15:32.522Z,3.34
2023-11-30T15:18:01.858Z,3.29
2023-11-30T15:20:44.203Z,3.23
2023-11-30T15:23:15.703Z,3.16
2023-11-30T15:25:55.644Z,3.10
2023-11-30T15:28:37.312Z,3.01
2023-11-30T15:31:13.779Z,2.91
2023-11-30T15:33:43.040Z,2.81
2023-11-30T15:36:15.428Z,2.74
2023-11-30T15:39:12.858Z,2.62
2023-11-30T15:41:51.773Z,2.49
2023-11-30T15:44:21.078Z,2.40
2023-11-30T15:47:01.726Z,2.32
2023-11-30T15:49:51.120Z,2.23
2023-11-30T15:52:31.745Z,2.18
2023-11-30T15:55:21.655Z,2.10
2023-11-30T15:58:02.444Z,2.03
2023-11-30T16:00:40.580Z,1.96
2023-11-30T16:03:21.138Z,1.90
2023-11-30T16:06:01.583Z,1.85
2023-11-30T16:08:51.143Z,1.80
2023-11-30T16:11:40.317Z,1.74
2023-11-30T16:14:29.598Z,1.69
2023-11-30T16:17:01.871Z,1.64
2023-11-30T16:19:42.426Z,1.59
2023-11-30T16:22:31.723Z,1.54
2023-11-30T16:25:04.370Z,1.50
2023-11-30T16:27:53.601Z,1.45
2023-11-30T16:30:23.039Z,1.42
2023-11-30T16:33:11.660Z,1.36
2023-11-30T16:36:01.754Z,1.31
2023-11-30T16:38:40.017Z,1.24
2023-11-30T16:41:15.189Z,1.19
2023-11-30T16:43:51.773Z,1.12
2023-11-30T16:46:24.134Z,1.07
2023-11-30T16:49:04.018Z,0.99
2023-11-30T16:51:38.130Z,0.94
2023-11-30T16:54:12.669Z,0.89
2023-11-30T16:56:44.919Z,0.84
2023-11-30T16:59:34.309Z,0.78
2023-11-30T17:02:23.570Z,0.72
2023-11-30T17:04:55.971Z,0.66
2023-11-30T17:07:37.999Z,0.61
2023-11-30T17:10:12.456Z,0.56
2023-11-30T17:13:01.730Z,0.50
2023-11-30T17:15:53.190Z,0.45
2023-11-30T17:18:36.460Z,0.40
2023-11-30T17:21:15.789Z,0.37
2023-11-30T17:23:47.134Z,0.36
2023-11-30T17:26:36.393Z,0.33
2023-11-30T17:29:19.501Z,0.29
2023-11-30T17:32:09.180Z,0.28
2023-11-30T17:34:38.584Z,0.24
2023-11-30T17:37:28.004Z,0.20
2023-11-30T17:40:11.760Z,0.15
2023-11-30T17:42:44.180Z,0.11
2023-11-30T17:45:21.939Z,0.08
2023-11-30T17:48:11.261Z,0.03
2023-11-30T17:50:50.748Z,-0.01
2023-11-30T17:53:39.970Z,-0.03
2023-11-30T17:56:29.349Z,-0.05
2023-11-30T17:59:18.659Z,-0.07
2023-11-30T18:02:08.187Z,-0.10
2023-11-30T18:04:57.649Z,-0.13
2023-11-30T18:07:38.441Z,-0.16
2023-11-30T18:10:08.149Z,-0.19
2023-11-30T18:12:40.231Z,-0.22
2023-11-30T18:15:10.290Z,-0.25
2023-11-30T18:17:47.618Z,-0.29
2023-11-30T18:20:19.946Z,-0.32
2023-11-30T18:23:01.804Z,-0.35
2023-11-30T18:25:33.367Z,-0.37
2023-11-30T18:28:13.629Z,-0.39
2023-11-30T18:31:12.226Z,-0.40
2023-11-30T18:34:00.576Z,-0.42
2023-11-30T18:36:32.131Z,-0.42
2023-11-30T18:39:01.255Z,-0.42
2023-11-30T18:41:30.462Z,-0.41
2023-11-30T18:44:20.300Z,-0.39
2023-11-30T18:46:59.525Z,-0.37
2023-11-30T18:49:42.952Z,-0.36
2023-11-30T18:52:32.125Z,-0.34
2023-11-30T18:55:21.411Z,-0.34
2023-11-30T18:57:51.181Z,-0.35
2023-11-30T19:00:34.300Z,-0.36
2023-11-30T19:03:23.765Z,-0.36
2023-11-30T19:06:06.518Z,-0.37
2023-11-30T19:08:55.751Z,-0.38
2023-11-30T19:11:37.463Z,-0.38
2023-11-30T19:14:24.282Z,-0.39
2023-11-30T19:16:56.557Z,-0.40
2023-11-30T19:19:39.939Z,-0.41
2023-11-30T19:22:18.809Z,-0.43
2023-11-30T19:24:50.702Z,-0.45
2023-11-30T19:27:40.114Z,-0.45
2023-11-30T19:30:16.116Z,-0.44
2023-11-30T19:33:04.433Z,-0.44
2023-11-30T19:35:36.553Z,-0.44
2023-11-30T19:38:16.454Z,-0.44
2023-11-30T19:40:57.657Z,-0.44
2023-11-30T19:43:46.973Z,-0.45
2023-11-30T19:46:38.053Z,-0.46
2023-11-30T19:49:27.448Z,-0.47
2023-11-30T19:51:56.506Z,-0.48
2023-11-30T19:54:45.839Z,-0.49
2023-11-30T19:57:31.701Z,-0.52
2023-11-30T20:00:12.625Z,-0.55
2023-11-30T20:02:54.798Z,-0.57
2023-11-30T20:05:44.183Z,-0.60
2023-11-30T20:08:24.546Z,-0.62
2023-11-30T20:11:07.676Z,-0.66
2023-11-30T20:13:39.571Z,-0.69
2023-11-30T20:16:18.115Z,-0.72
2023-11-30T20:19:07.526Z,-0.74
2023-11-30T20:21:49.922Z,-0.77
2023-11-30T20:24:29.225Z,-0.78
2023-11-30T20:27:11.461Z,-0.79
2023-11-30T20:29:59.576Z,-0.82
2023-11-30T20:32:49.060Z,-0.83
2023-11-30T20:35:38.537Z,-0.85
2023-11-30T20:38:29.455Z,-0.87
2023-11-30T20:40:58.795Z,-0.89
2023-11-30T20:43:36.582Z,-0.90
2023-11-30T20:46:09.107Z,-0.93
2023-11-30T20:48:48.483Z,-0.95
2023-11-30T20:51:30.521Z,-0.98
2023-11-30T20:54:19.921Z,-0.99
2023-11-30T20:57:09.880Z,-0.99
2023-11-30T20:59:52.129Z,-0.98
2023-11-30T21:02:21.435Z,-0.96
2023-11-30T21:05:11.181Z,-0.92
2023-11-30T21:07:40.286Z,-0.89
2023-11-30T21:10:29.651Z,-0.86
2023-11-30T21:13:20.617Z,-0.83
2023-11-30T21:15:52.126Z,-0.82
2023-11-30T21:18:24.255Z,-0.83
2023-11-30T21:21:13.881Z,-0.85
2023-11-30T21:23:43.684Z,-0.87
2023-11-30T21:26:33.102Z,-0.90
2023-11-30T21:29:09.724Z,-0.93
2023-11-30T22:03:22.142Z,-1.14
2023-11-30T22:06:04.675Z,-1.19
2023-11-30T22:08:51.436Z,-1.22
2023-11-30T22:11:32.087Z,-1.27
2023-11-30T22:14:21.314Z,-1.29
2023-11-30T22:16:53.294Z,-1.30
2023-11-30T22:19:42.562Z,-1.30
2023-11-30T22:22:21.927Z,-1.32
2023-11-30T22:25:11.480Z,-1.32
2023-11-30T22:27:43.981Z,-1.33
2023-11-30T22:30:33.332Z,-1.35
2023-11-30T22:33:22.724Z,-1.37
2023-11-30T22:36:12.881Z,-1.39
2023-11-30T22:39:02.207Z,-1.40
2023-11-30T22:41:51.737Z,-1.41
2023-11-30T22:44:39.956Z,-1.40
2023-11-30T22:47:28.982Z,-1.39
2023-11-30T22:50:11.504Z,-1.40
2023-11-30T22:52:52.373Z,-1.39
2023-11-30T22:55:41.914Z,-1.39
2023-11-30T22:58:31.242Z,-1.38
2023-11-30T23:01:22.069Z,-1.37
2023-11-30T23:04:10.272Z,-1.38
2023-11-30T23:07:00.287Z,-1.38
2023-11-30T23:09:49.510Z,-1.38
2023-11-30T23:12:21.767Z,-1.36
2023-11-30T23:15:03.659Z,-1.35
2023-11-30T23:17:38.178Z,-1.33
2023-11-30T23:20:27.453Z,-1.31
2023-11-30T23:23:16.930Z,-1.27
2023-11-30T23:26:06.330Z,-1.22
2023-11-30T23:28:54.207Z,-1.19
2023-11-30T23:31:26.453Z,-1.16
2023-11-30T23:34:08.465Z,-1.14
2023-11-30T23:36:57.705Z,-1.11
2023-11-30T23:39:47.017Z,-1.11
2023-11-30T23:42:36.502Z,-1.10
2023-11-30T23:45:26.065Z,-1.08
2023-11-30T23:48:15.446Z,-1.07
2023-11-30T23:51:05.027Z,-1.06
2023-11-30T23:53:54.398Z,-1.05
2023-11-30T23:56:43.596Z,-1.04
2023-11-30T23:59:12.877Z,-1.02
